Time;durP1;ratioP1;P1;durP2;ratioP2;P2;SDS_P1;SDS_P2;PMS_P1;PMS_P2;Temp;Humidity;BMP_temperature;BMP_pressure;BME280_temperature;BME280_humidity;BME280_pressure;Samples;Min_cycle;Max_cycle;Signal;HPM_P1;HPM_P2
2024/03/05 00:00:50;;;;;;;18.30;4.22;;;;;;;9.19;78.46;100763.22;5088634;28;20080;-68
2024/03/05 00:03:16;;;;;;;13.30;4.47;;;;;;;9.37;77.02;100764.50;5088562;28;20024;-68
2024/03/05 00:05:41;;;;;;;9.75;4.18;;;;;;;9.33;77.33;100768.97;5068416;28;20394;-67
2024/03/05 00:08:07;;;;;;;10.65;4.82;;;;;;;9.40;77.17;100775.31;5070327;28;20027;-68
2024/03/05 00:10:32;;;;;;;11.30;4.70;;;;;;;9.44;76.83;100770.03;5085922;28;20093;-69
2024/03/05 00:12:58;;;;;;;8.27;3.92;;;;;;;9.35;76.95;100774.78;5067525;28;20652;-68
2024/03/05 00:15:23;;;;;;;9.15;4.70;;;;;;;9.42;77.35;100778.44;5087473;28;20694;-68
2024/03/05 00:17:48;;;;;;;9.73;4.38;;;;;;;9.24;77.91;100782.56;5085551;28;20039;-68
2024/03/05 00:20:20;;;;;;;10.30;4.38;;;;;;;9.26;77.52;100774.16;5087268;28;20102;-67
2024/03/05 00:22:50;;;;;;;8.05;4.22;;;;;;;8.94;78.06;100774.03;5085488;28;20043;-68
2024/03/05 00:25:18;;;;;;;10.85;4.05;;;;;;;8.94;78.77;100784.78;5085252;28;20054;-68
2024/03/05 00:27:48;;;;;;;11.98;4.60;;;;;;;8.92;79.04;100775.50;5086455;28;20147;-68
2024/03/05 00:30:14;;;;;;;7.82;3.60;;;;;;;9.06;78.77;100778.59;5103155;27;20039;-68
2024/03/05 00:32:39;;;;;;;8.20;4.15;;;;;;;9.24;77.57;100766.44;5086246;28;20039;-68
2024/03/05 00:35:06;;;;;;;7.55;4.30;;;;;;;8.99;78.09;100775.72;5084609;28;20032;-68
2024/03/05 00:37:32;;;;;;;7.43;4.25;;;;;;;9.05;77.92;100782.41;5088477;28;20701;-68
2024/03/05 00:39:58;;;;;;;9.15;4.40;;;;;;;9.04;78.67;100784.31;5084699;28;20048;-68
2024/03/05 00:42:26;;;;;;;10.63;4.78;;;;;;;8.95;79.13;100775.63;5083820;28;20082;-68
2024/03/05 00:44:52;;;;;;;10.90;4.30;;;;;;;9.15;77.89;100773.06;5085334;28;20266;-68
2024/03/05 00:47:18;;;;;;;9.77;4.43;;;;;;;9.19;77.59;100780.13;5088468;28;20032;-68
2024/03/05 00:49:43;;;;;;;12.55;4.38;;;;;;;9.01;78.49;100778.84;5088593;28;20118;-68
2024/03/05 00:52:09;;;;;;;7.97;4.03;;;;;;;9.04;79.42;100778.13;5082844;28;20163;-68
2024/03/05 00:54:34;;;;;;;7.95;4.05;;;;;;;9.01;79.29;100770.78;5068492;28;20543;-67
2024/03/05 00:57:00;;;;;;;8.13;3.72;;;;;;;9.04;79.08;100773.56;5085849;28;20127;-68
2024/03/05 00:59:25;;;;;;;7.60;4.97;;;;;;;9.13;79.08;100768.06;5069162;28;20027;-68
2024/03/05 01:01:51;;;;;;;11.13;4.45;;;;;;;9.02;78.64;100770.44;5088398;28;20035;-68
2024/03/05 01:04:16;;;;;;;11.85;4.38;;;;;;;9.09;78.86;100776.03;5079388;28;20048;-68
2024/03/05 01:06:44;;;;;;;8.10;3.97;;;;;;;8.94;79.25;100765.97;5069627;28;20165;-68
2024/03/05 01:09:18;;;;;;;15.38;4.35;;;;;;;9.09;78.85;100767.97;5086017;28;20035;-68
2024/03/05 01:11:43;;;;;;;18.25;4.70;;;;;;;9.11;78.41;100770.31;5084032;28;20607;-68
2024/03/05 01:14:09;;;;;;;17.23;5.22;;;;;;;8.89;79.07;100768.13;5084102;28;20036;-68
2024/03/05 01:16:34;;;;;;;8.15;3.85;;;;;;;8.86;79.05;100760.75;5083971;28;20040;-68
2024/03/05 01:19:00;;;;;;;10.35;4.15;;;;;;;8.55;80.89;100760.59;5083647;28;20040;-68
2024/03/05 01:21:25;;;;;;;11.45;4.28;;;;;;;8.84;80.27;100757.63;5087449;28;20024;-68
2024/03/05 01:23:51;;;;;;;8.68;3.88;;;;;;;8.76;80.72;100751.28;5085507;28;20562;-68
2024/03/05 01:26:17;;;;;;;7.68;3.88;;;;;;;8.85;80.24;100756.50;5085782;28;20034;-67
2024/03/05 01:28:43;;;;;;;13.85;4.95;;;;;;;8.75;80.38;100748.94;5084235;28;20027;-67
2024/03/05 01:31:08;;;;;;;8.40;4.05;;;;;;;8.68;80.71;100746.81;5085909;28;20088;-68
2024/03/05 01:33:37;;;;;;;8.10;3.88;;;;;;;8.79;80.48;100749.78;5088841;28;20470;-66
2024/03/05 01:36:03;;;;;;;9.45;4.30;;;;;;;8.73;79.82;100748.50;5087906;28;20484;-68
2024/03/05 01:38:29;;;;;;;9.30;3.55;;;;;;;8.60;80.89;100749.63;5085885;28;20027;-68
2024/03/05 01:40:55;;;;;;;10.43;4.05;;;;;;;8.67;80.75;100745.25;5117153;27;20080;-67
2024/03/05 01:43:21;;;;;;;15.82;4.32;;;;;;;8.59;80.73;100748.88;5085697;28;20028;-68
2024/03/05 01:45:50;;;;;;;6.60;3.50;;;;;;;8.29;82.07;100752.13;5086980;28;20028;-68
2024/03/05 01:48:16;;;;;;;7.93;4.10;;;;;;;8.41;82.00;100755.59;5087008;28;20074;-68
2024/03/05 01:50:42;;;;;;;8.25;4.60;;;;;;;8.24;82.65;100750.44;5085184;28;20031;-68
2024/03/05 01:53:10;;;;;;;8.25;4.25;;;;;;;8.27;82.36;100747.09;5084291;28;20023;-68
2024/03/05 01:55:38;;;;;;;13.45;4.25;;;;;;;8.29;82.53;100757.47;5086963;28;20614;-68
2024/03/05 01:58:06;;;;;;;8.23;3.67;;;;;;;8.53;81.67;100750.22;5074852;28;20020;-67
2024/03/05 02:00:32;;;;;;;9.88;4.13;;;;;;;8.37;82.08;100748.53;5089193;28;20168;-68
2024/03/05 02:02:58;;;;;;;6.50;3.63;;;;;;;8.31;82.63;100748.00;5088543;28;20581;-67
2024/03/05 02:05:23;;;;;;;11.43;4.35;;;;;;;8.50;81.08;100753.56;5096996;28;20111;-67
2024/03/05 02:07:53;;;;;;;9.45;3.95;;;;;;;8.11;83.18;100746.16;5089351;28;20036;-68
2024/03/05 02:10:19;;;;;;;12.30;4.32;;;;;;;8.25;82.54;100753.91;5087608;28;20032;-68
2024/03/05 02:12:44;;;;;;;10.98;4.30;;;;;;;8.32;82.66;100744.22;5090148;28;20035;-68
2024/03/05 02:15:13;;;;;;;5.82;2.90;;;;;;;8.36;82.03;100750.47;5073926;28;20532;-68
2024/03/05 02:17:45;;;;;;;7.60;3.85;;;;;;;8.31;82.28;100739.16;5096109;28;20049;-67
2024/03/05 02:20:14;;;;;;;10.30;4.82;;;;;;;8.41;82.34;100752.13;5087299;28;20075;-68
2024/03/05 02:22:41;;;;;;;8.13;3.83;;;;;;;8.31;82.29;100747.19;5088507;28;20027;-68
2024/03/05 02:25:06;;;;;;;10.90;4.32;;;;;;;8.48;81.79;100742.38;5090227;28;20043;-68
2024/03/05 02:27:33;;;;;;;8.25;3.65;;;;;;;8.32;82.50;100746.09;5071212;28;20035;-68
2024/03/05 02:29:59;;;;;;;8.63;4.53;;;;;;;8.50;82.25;100747.41;5090203;28;20039;-68
2024/03/05 02:32:25;;;;;;;10.07;4.03;;;;;;;8.57;81.56;100745.72;5091462;28;20012;-67
2024/03/05 02:34:54;;;;;;;10.57;3.60;;;;;;;8.52;81.92;100761.25;5090048;28;20035;-68
2024/03/05 02:37:22;;;;;;;9.88;4.30;;;;;;;8.34;82.67;100755.38;5090134;28;20020;-68
2024/03/05 02:39:48;;;;;;;7.63;4.57;;;;;;;8.38;82.25;100752.81;5089799;28;20039;-68
2024/03/05 02:42:16;;;;;;;11.00;4.03;;;;;;;8.51;81.39;100755.13;5091344;28;20034;-68
2024/03/05 02:44:41;;;;;;;9.57;4.07;;;;;;;8.27;82.21;100765.09;5085982;28;20044;-68
2024/03/05 02:47:07;;;;;;;6.55;3.40;;;;;;;8.28;82.65;100758.63;5071131;28;20771;-68
2024/03/05 02:49:34;;;;;;;9.15;4.03;;;;;;;8.50;82.01;100753.56;5087394;28;20062;-68
2024/03/05 02:51:59;;;;;;;9.63;3.65;;;;;;;8.58;81.29;100762.59;5087978;28;20028;-68
2024/03/05 02:54:25;;;;;;;10.57;4.18;;;;;;;8.59;81.36;100764.19;5088839;28;20033;-68
2024/03/05 02:56:50;;;;;;;12.63;5.07;;;;;;;8.53;81.97;100763.63;5090543;28;20163;-68
2024/03/05 02:59:17;;;;;;;14.50;5.07;;;;;;;8.47;81.83;100764.19;5087132;28;20476;-68
2024/03/05 03:01:50;;;;;;;8.60;4.10;;;;;;;8.48;81.35;100766.53;5087644;28;20122;-68
2024/03/05 03:04:15;;;;;;;11.88;4.07;;;;;;;8.23;82.24;100764.19;5091409;28;20400;-68
2024/03/05 03:06:41;;;;;;;8.30;4.10;;;;;;;8.36;82.34;100763.09;5089821;28;20047;-68
2024/03/05 03:09:07;;;;;;;8.55;3.95;;;;;;;8.54;81.52;100767.06;5090379;28;20032;-68
2024/03/05 03:11:34;;;;;;;7.22;3.22;;;;;;;8.40;81.41;100764.75;5088903;28;20069;-68
2024/03/05 03:14:00;;;;;;;8.73;4.75;;;;;;;8.39;82.04;100770.44;5103233;27;20043;-68
2024/03/05 03:16:25;;;;;;;7.38;3.83;;;;;;;8.55;81.83;100766.75;5090406;28;20475;-68
2024/03/05 03:18:51;;;;;;;10.05;4.68;;;;;;;8.53;81.37;100769.00;5091636;28;20020;-68
2024/03/05 03:21:16;;;;;;;4.63;3.67;;;;;;;8.49;81.21;100770.00;5086415;28;20028;-68
2024/03/05 03:23:42;;;;;;;12.88;4.43;;;;;;;8.35;81.73;100773.03;5084933;28;20044;-68
2024/03/05 03:26:09;;;;;;;8.73;4.47;;;;;;;8.51;80.98;100768.56;5083630;28;20019;-67
2024/03/05 03:28:35;;;;;;;9.15;4.18;;;;;;;8.50;81.47;100776.91;5085341;28;20121;-68
2024/03/05 03:31:01;;;;;;;8.45;3.78;;;;;;;8.56;80.96;100781.72;5085915;28;20062;-67
2024/03/05 03:33:26;;;;;;;5.60;3.75;;;;;;;8.30;82.14;100792.03;5083512;28;20059;-67
2024/03/05 03:35:52;;;;;;;9.27;4.22;;;;;;;8.15;82.66;100781.94;5087521;28;20024;-67
2024/03/05 03:38:18;;;;;;;11.02;3.72;;;;;;;8.08;82.33;100779.81;5083045;28;20110;-67
2024/03/05 03:40:43;;;;;;;9.70;3.55;;;;;;;8.04;82.74;100784.28;5084048;28;20119;-67
2024/03/05 03:43:12;;;;;;;13.75;4.70;;;;;;;8.13;82.90;100784.97;5086372;28;20023;-67
2024/03/05 03:45:37;;;;;;;13.55;4.03;;;;;;;8.07;82.58;100782.84;5086873;28;20028;-67
2024/03/05 03:48:03;;;;;;;11.60;3.40;;;;;;;8.04;83.05;100778.94;5087307;28;20717;-67
2024/03/05 03:50:28;;;;;;;17.48;4.22;;;;;;;8.04;83.05;100786.19;5087120;28;20016;-67
2024/03/05 03:52:54;;;;;;;8.88;3.85;;;;;;;8.00;83.13;100779.91;5087359;28;20118;-67
2024/03/05 03:55:19;;;;;;;9.95;4.50;;;;;;;8.20;82.52;100781.72;5085206;28;20541;-67
2024/03/05 03:57:46;;;;;;;6.88;3.35;;;;;;;7.93;82.87;100785.06;5085508;28;20073;-67
2024/03/05 04:00:16;;;;;;;7.75;4.07;;;;;;;7.90;82.82;100786.50;5085506;28;20027;-67
2024/03/05 04:02:42;;;;;;;10.00;4.07;;;;;;;7.84;83.29;100787.06;5086728;28;20050;-67
2024/03/05 04:05:09;;;;;;;11.18;4.40;;;;;;;7.68;83.99;100789.59;5086940;28;20031;-67
2024/03/05 04:07:38;;;;;;;10.23;4.57;;;;;;;7.45;85.19;100783.06;5084962;28;20055;-67
2024/03/05 04:10:07;;;;;;;10.98;4.55;;;;;;;7.37;85.30;100786.59;5087045;28;20028;-67
2024/03/05 04:12:33;;;;;;;7.57;3.67;;;;;;;7.39;85.71;100797.78;5117462;27;20036;-67
2024/03/05 04:15:00;;;;;;;8.38;3.80;;;;;;;7.58;84.48;100800.72;5086699;28;20039;-67
2024/03/05 04:17:26;;;;;;;11.23;4.30;;;;;;;7.78;84.09;100804.47;5070717;28;20048;-67
2024/03/05 04:19:52;;;;;;;10.75;4.78;;;;;;;7.79;83.50;100806.03;5084430;28;20020;-67
2024/03/05 04:22:18;;;;;;;10.70;4.15;;;;;;;7.61;84.44;100812.66;5084332;28;20043;-68
2024/03/05 04:24:52;;;;;;;10.38;4.28;;;;;;;7.71;83.69;100809.56;5082054;28;20097;-67
2024/03/05 04:27:23;;;;;;;8.18;3.80;;;;;;;7.88;83.09;100812.84;5084971;28;20118;-67
2024/03/05 04:29:53;;;;;;;7.75;3.80;;;;;;;7.76;83.54;100820.09;5083194;28;20039;-67
2024/03/05 04:32:20;;;;;;;8.50;3.77;;;;;;;7.83;83.00;100817.66;5113981;27;20421;-67
2024/03/05 04:34:50;;;;;;;9.98;4.30;;;;;;;7.69;83.14;100822.53;5087687;28;20020;-67
2024/03/05 04:37:17;;;;;;;9.05;3.80;;;;;;;7.68;82.99;100829.00;5091400;28;20072;-67
2024/03/05 04:39:42;;;;;;;9.02;4.07;;;;;;;7.88;82.58;100830.84;5071561;28;20489;-67
2024/03/05 04:42:08;;;;;;;9.15;3.88;;;;;;;7.80;82.86;100826.38;5090304;28;20031;-67
2024/03/05 04:44:34;;;;;;;10.00;3.92;;;;;;;7.47;83.96;100825.59;5089621;28;20085;-67
2024/03/05 04:47:00;;;;;;;9.32;4.15;;;;;;;7.58;84.02;100829.41;5083553;28;20052;-67
2024/03/05 04:49:26;;;;;;;12.55;4.05;;;;;;;7.69;83.51;100825.19;5086832;28;20072;-67
2024/03/05 04:51:52;;;;;;;9.20;4.20;;;;;;;7.66;83.27;100825.88;5087879;28;20036;-67
2024/03/05 04:54:18;;;;;;;6.95;3.75;;;;;;;7.41;84.57;100825.03;5089088;28;20024;-67
2024/03/05 04:56:43;;;;;;;7.82;3.78;;;;;;;7.32;84.88;100838.47;5087635;28;20028;-67
2024/03/05 04:59:09;;;;;;;7.93;4.05;;;;;;;7.28;85.26;100839.44;5070024;28;20492;-67
2024/03/05 05:01:35;;;;;;;8.45;4.00;;;;;;;7.42;85.31;100839.16;5082237;28;20507;-67
2024/03/05 05:04:00;;;;;;;8.10;4.38;;;;;;;7.62;84.17;100841.03;5085740;28;20019;-67
2024/03/05 05:06:26;;;;;;;5.57;3.30;;;;;;;7.58;83.95;100834.78;5067185;28;20650;-67
2024/03/05 05:08:51;;;;;;;11.43;4.20;;;;;;;7.76;83.55;100836.19;5085169;28;20384;-67
2024/03/05 05:11:17;;;;;;;8.70;3.55;;;;;;;7.57;83.43;100843.94;5086835;28;20044;-67
2024/03/05 05:13:42;;;;;;;8.35;3.78;;;;;;;7.72;83.16;100836.06;5086542;28;20089;-67
2024/03/05 05:16:11;;;;;;;6.68;3.45;;;;;;;7.59;83.84;100841.72;5089274;28;20024;-67
2024/03/05 05:18:38;;;;;;;12.20;4.72;;;;;;;7.63;84.25;100840.72;5089195;28;20502;-67
2024/03/05 05:21:04;;;;;;;10.35;3.80;;;;;;;7.66;84.25;100842.75;5072933;28;20532;-67
2024/03/05 05:23:29;;;;;;;11.57;4.13;;;;;;;7.86;83.47;100849.94;5084832;28;20076;-67
2024/03/05 05:25:55;;;;;;;8.15;3.78;;;;;;;7.94;83.08;100842.91;5085800;28;20034;-67
2024/03/05 05:28:20;;;;;;;7.43;3.83;;;;;;;7.81;82.86;100852.84;5066477;28;20027;-67
2024/03/05 05:30:45;;;;;;;10.75;4.53;;;;;;;7.84;83.40;100848.72;5085015;28;20529;-67
2024/03/05 05:33:12;;;;;;;7.00;4.15;;;;;;;7.92;83.32;100850.50;5093238;28;20027;-67
2024/03/05 05:35:37;;;;;;;8.75;4.55;;;;;;;7.90;83.17;100853.53;5092361;28;20020;-67
2024/03/05 05:38:04;;;;;;;11.32;4.50;;;;;;;8.02;82.63;100860.81;5090289;28;20024;-67
2024/03/05 05:40:29;;;;;;;6.88;3.20;;;;;;;7.91;82.46;100857.78;5104056;27;20050;-67
2024/03/05 05:42:55;;;;;;;9.23;4.05;;;;;;;8.06;82.55;100867.09;5071241;28;20099;-67
2024/03/05 05:45:22;;;;;;;8.48;4.15;;;;;;;7.99;82.31;100862.25;5090277;28;20107;-67
2024/03/05 05:47:54;;;;;;;11.05;4.60;;;;;;;8.05;82.33;100865.53;5068538;28;20051;-67
2024/03/05 05:50:28;;;;;;;13.15;4.63;;;;;;;8.13;81.86;100878.81;5086486;28;20040;-67
2024/03/05 05:52:55;;;;;;;9.05;4.32;;;;;;;8.11;82.30;100872.22;5120706;27;20047;-67
2024/03/05 05:55:27;;;;;;;11.52;4.68;;;;;;;7.99;83.36;100877.56;5067116;28;20032;-67
2024/03/05 05:57:54;;;;;;;11.73;4.50;;;;;;;8.00;83.24;100879.13;5090291;28;20068;-67
2024/03/05 06:00:38;;;;;;;8.38;4.50;;;;;;;8.13;82.06;100881.50;5085058;28;20485;-67
2024/03/05 06:03:06;;;;;;;10.32;4.20;;;;;;;8.08;82.29;100878.25;5090339;28;20050;-67
2024/03/05 06:05:34;;;;;;;8.68;4.32;;;;;;;8.27;81.34;100881.22;5070253;28;20104;-67
2024/03/05 06:08:00;;;;;;;9.63;4.53;;;;;;;8.31;81.56;100887.50;5089886;28;20039;-67
2024/03/05 06:10:27;;;;;;;8.90;4.13;;;;;;;8.18;82.07;100886.69;5085421;28;20024;-68
2024/03/05 06:12:53;;;;;;;12.18;5.55;;;;;;;8.14;82.11;100890.34;5096502;28;20051;-67
2024/03/05 06:15:18;;;;;;;14.30;4.55;;;;;;;8.23;81.59;100894.50;5084455;28;20599;-67
2024/03/05 06:17:45;;;;;;;10.82;5.18;;;;;;;8.18;81.80;100894.72;5083856;28;20036;-67
2024/03/05 06:20:12;;;;;;;7.43;3.72;;;;;;;8.17;82.06;100900.41;5116477;27;20051;-67
2024/03/05 06:22:38;;;;;;;10.10;3.58;;;;;;;8.16;81.78;100893.47;5090333;28;20031;-67
2024/03/05 06:25:08;;;;;;;22.63;5.10;;;;;;;8.26;81.86;100897.66;5087120;28;20049;-67
2024/03/05 06:27:36;;;;;;;13.73;4.13;;;;;;;8.34;81.17;100911.00;5095849;28;20040;-67
2024/03/05 06:30:08;;;;;;;7.45;4.25;;;;;;;8.19;81.38;100911.56;5075021;28;20034;-67
2024/03/05 06:32:41;;;;;;;12.00;5.05;;;;;;;8.29;81.63;100913.09;5083169;28;20667;-68
2024/03/05 06:35:10;;;;;;;9.27;4.78;;;;;;;8.25;81.74;100910.28;5094459;28;20567;-67
2024/03/05 06:37:40;;;;;;;10.20;4.65;;;;;;;8.19;82.00;100911.56;5089294;28;20027;-67
2024/03/05 06:40:09;;;;;;;9.57;4.38;;;;;;;8.24;81.71;100914.06;5085673;28;20032;-67
2024/03/05 06:42:35;;;;;;;15.43;4.55;;;;;;;8.08;82.15;100921.16;5089969;28;20020;-68
2024/03/05 06:45:06;;;;;;;17.23;4.45;;;;;;;8.08;81.88;100921.16;5096635;28;20039;-68
2024/03/05 06:47:54;;;;;;;8.50;4.20;;;;;;;7.92;82.79;100917.53;5093030;28;20024;-68
2024/03/05 06:50:23;;;;;;;9.88;4.10;;;;;;;7.93;82.65;100924.47;5083900;28;20067;-68
2024/03/05 06:58:20;;;;;;;7.57;4.18;;;;;;;8.06;81.66;100926.88;5085036;28;20035;-68
2024/03/05 07:00:46;;;;;;;10.50;4.57;;;;;;;7.97;82.32;100917.34;5092947;28;20032;-68
2024/03/05 07:03:13;;;;;;;14.15;4.53;;;;;;;8.05;82.49;100925.28;5091763;28;20043;-68
2024/03/05 07:05:38;;;;;;;11.45;4.95;;;;;;;7.99;81.90;100926.59;5095120;28;20032;-67
2024/03/05 07:08:07;;;;;;;10.13;4.35;;;;;;;8.02;81.27;100935.91;5091724;28;20081;-68
2024/03/05 07:10:34;;;;;;;14.93;4.28;;;;;;;8.15;80.89;100924.88;5092285;28;20058;-67
2024/03/05 07:13:01;;;;;;;11.32;4.32;;;;;;;7.94;81.63;100928.72;5086148;28;20027;-68
2024/03/05 07:15:26;;;;;;;8.75;3.72;;;;;;;8.14;81.23;100938.63;5113433;27;20645;-67
2024/03/05 07:17:52;;;;;;;7.70;3.30;;;;;;;8.11;80.04;100929.34;5070221;28;20020;-67
2024/03/05 07:20:22;;;;;;;13.60;3.75;;;;;;;8.04;80.77;100931.00;5082996;28;20024;-67
2024/03/05 07:22:55;;;;;;;8.68;4.03;;;;;;;8.17;79.97;100932.59;5096461;27;20067;-68
2024/03/05 07:25:22;;;;;;;7.60;3.60;;;;;;;7.87;81.17;100939.19;5082900;28;20379;-67
2024/03/05 07:27:49;;;;;;;11.85;3.75;;;;;;;7.99;80.30;100947.28;5072695;28;20043;-67
2024/03/05 07:30:20;;;;;;;6.15;3.13;;;;;;;7.95;80.24;100941.81;5084660;28;20023;-67
2024/03/05 07:32:47;;;;;;;7.43;3.47;;;;;;;7.84;80.82;100945.22;5086760;28;20530;-67
2024/03/05 07:35:13;;;;;;;10.98;4.18;;;;;;;7.93;80.85;100952.09;5089063;28;20066;-67
2024/03/05 07:37:44;;;;;;;6.70;3.45;;;;;;;8.09;79.55;100942.28;5084446;28;20122;-67
2024/03/05 07:40:18;;;;;;;6.78;3.22;;;;;;;8.19;79.57;100941.09;5087671;28;20032;-67
2024/03/05 07:42:48;;;;;;;4.50;2.85;;;;;;;8.17;79.74;100948.69;5085419;28;20036;-68
2024/03/05 07:45:15;;;;;;;12.98;3.80;;;;;;;8.09;80.14;100947.66;5086302;28;20073;-67
2024/03/05 07:47:42;;;;;;;8.15;3.58;;;;;;;7.92;80.22;100952.38;5090835;28;20047;-67
2024/03/05 07:50:12;;;;;;;5.38;3.20;;;;;;;8.34;77.99;100948.56;5086888;28;20023;-67
2024/03/05 07:52:38;;;;;;;6.75;2.97;;;;;;;8.31;78.99;100949.19;5086868;28;20111;-68
2024/03/05 07:55:06;;;;;;;11.77;3.50;;;;;;;8.38;78.83;100954.78;5089467;28;20027;-68
2024/03/05 07:57:31;;;;;;;6.35;2.95;;;;;;;8.38;78.74;100941.38;5087913;28;20027;-67
2024/03/05 07:59:57;;;;;;;6.13;3.28;;;;;;;8.55;78.30;100940.41;5069732;28;20137;-68
2024/03/05 08:02:23;;;;;;;9.90;3.42;;;;;;;8.56;78.00;100945.44;5081257;28;20036;-67
2024/03/05 08:04:48;;;;;;;8.95;3.42;;;;;;;8.53;77.48;100951.50;5085846;28;20027;-68
2024/03/05 08:07:13;;;;;;;5.78;3.10;;;;;;;8.41;78.23;100943.41;5084237;28;20060;-67
2024/03/05 08:09:39;;;;;;;5.82;2.45;;;;;;;8.58;77.65;100945.91;5079653;28;20165;-67
2024/03/05 08:12:05;;;;;;;7.05;3.30;;;;;;;9.01;76.64;100950.72;5085517;28;20035;-68
2024/03/05 08:14:31;;;;;;;7.78;3.60;;;;;;;9.00;75.76;100949.19;5084999;28;20139;-68
2024/03/05 08:16:57;;;;;;;3.63;2.72;;;;;;;9.37;74.40;100952.63;5087245;28;20468;-68
2024/03/05 08:19:23;;;;;;;5.47;2.80;;;;;;;9.33;73.50;100952.47;5083822;28;20023;-68
2024/03/05 08:21:48;;;;;;;5.38;2.83;;;;;;;9.47;72.28;100949.44;5087393;28;20027;-68
2024/03/05 08:24:14;;;;;;;5.13;2.60;;;;;;;9.53;71.75;100956.16;5088058;28;20048;-67
2024/03/05 08:26:39;;;;;;;4.78;3.05;;;;;;;9.73;71.54;100963.28;5082770;28;20047;-68
2024/03/05 08:29:05;;;;;;;6.75;2.55;;;;;;;10.08;70.77;100958.88;5085373;28;20016;-68
2024/03/05 08:31:31;;;;;;;8.80;3.15;;;;;;;10.29;68.57;100956.78;5085885;28;20027;-68
2024/03/05 08:33:57;;;;;;;7.30;3.03;;;;;;;10.35;67.54;100966.16;5086183;28;20183;-68
2024/03/05 08:36:25;;;;;;;6.57;3.38;;;;;;;10.56;66.96;100968.63;5087263;28;20036;-68
2024/03/05 08:38:50;;;;;;;6.75;2.92;;;;;;;10.71;66.50;100963.25;5081879;28;20110;-68
2024/03/05 08:41:17;;;;;;;5.85;2.70;;;;;;;10.73;65.31;100960.97;5076076;28;20039;-68
2024/03/05 08:43:43;;;;;;;5.90;2.38;;;;;;;10.77;64.36;100961.84;5081208;28;20039;-67
2024/03/05 08:46:09;;;;;;;4.55;2.63;;;;;;;10.71;63.56;100974.03;5081650;28;20024;-68
2024/03/05 08:48:35;;;;;;;5.28;2.53;;;;;;;10.76;64.02;100973.75;5101463;28;20080;-68
2024/03/05 08:51:00;;;;;;;5.75;2.53;;;;;;;10.93;63.14;100980.72;5069174;28;20106;-68
2024/03/05 08:53:26;;;;;;;5.35;3.50;;;;;;;11.20;61.92;100985.22;5089270;28;20019;-68
2024/03/05 08:55:54;;;;;;;6.47;3.15;;;;;;;11.14;61.91;100989.28;5081112;28;20123;-68
2024/03/05 08:58:20;;;;;;;5.50;2.88;;;;;;;10.75;61.00;100988.34;5088363;28;20488;-68
2024/03/05 09:00:45;;;;;;;5.00;2.33;;;;;;;10.69;62.21;100987.03;5089315;28;20024;-68
2024/03/05 09:03:13;;;;;;;8.30;2.40;;;;;;;10.78;62.22;100995.72;5067872;28;20031;-68
2024/03/05 09:05:40;;;;;;;4.43;2.35;;;;;;;10.87;61.52;100995.56;5087584;28;20028;-68
2024/03/05 09:08:06;;;;;;;6.00;2.10;;;;;;;11.28;60.45;100981.53;5094527;28;20023;-68
2024/03/05 09:10:31;;;;;;;10.30;3.10;;;;;;;11.45;59.77;100993.84;5094140;28;20031;-68
2024/03/05 09:12:57;;;;;;;6.03;2.75;;;;;;;11.59;59.82;100989.53;5091277;28;20024;-67
2024/03/05 09:15:22;;;;;;;4.65;2.78;;;;;;;11.84;59.06;100987.41;5093264;28;20032;-68
2024/03/05 09:17:48;;;;;;;7.05;2.72;;;;;;;11.91;57.91;100987.53;5095866;28;20100;-68
2024/03/05 09:20:14;;;;;;;4.63;2.05;;;;;;;12.33;56.54;100996.47;5090419;28;20051;-68
2024/03/05 09:22:46;;;;;;;8.18;2.38;;;;;;;12.40;56.66;100996.59;5089552;28;20440;-67
2024/03/05 09:25:12;;;;;;;7.35;2.60;;;;;;;12.49;55.90;100989.03;5087095;28;20436;-68
2024/03/05 09:27:39;;;;;;;3.95;2.33;;;;;;;12.43;55.47;100992.38;5088195;28;20017;-68
2024/03/05 09:30:05;;;;;;;11.27;2.70;;;;;;;12.35;56.23;100986.06;5090548;28;20137;-67
2024/03/05 09:32:31;;;;;;;5.43;2.50;;;;;;;12.51;55.60;100997.56;5073652;28;20024;-67
2024/03/05 09:34:57;;;;;;;5.13;2.45;;;;;;;12.67;55.07;101002.88;5071332;28;20124;-67
2024/03/05 09:37:27;;;;;;;6.85;2.58;;;;;;;12.85;55.08;101003.19;5096319;28;20028;-68
2024/03/05 09:39:53;;;;;;;4.07;2.17;;;;;;;12.72;54.08;100999.84;5098802;28;20036;-67
2024/03/05 09:42:20;;;;;;;6.15;2.83;;;;;;;12.70;55.04;100997.53;5098865;28;20016;-66
2024/03/05 09:44:46;;;;;;;6.57;3.20;;;;;;;12.81;54.12;101002.34;5080218;28;20040;-66
2024/03/05 09:47:13;;;;;;;9.48;2.42;;;;;;;12.79;53.89;101004.63;5094214;28;20051;-66
2024/03/05 09:49:42;;;;;;;5.55;2.35;;;;;;;12.32;54.04;101011.13;5082690;28;20023;-66
2024/03/05 09:52:09;;;;;;;4.65;2.08;;;;;;;12.24;54.80;101008.63;5090561;28;20208;-66
2024/03/05 09:54:36;;;;;;;7.00;2.45;;;;;;;12.30;54.34;101005.28;5070381;28;20089;-66
2024/03/05 09:57:04;;;;;;;4.28;2.35;;;;;;;12.33;55.78;101001.09;5092075;28;20542;-66
2024/03/05 09:59:29;;;;;;;6.18;2.58;;;;;;;12.47;54.51;101010.22;5121364;27;20032;-66
2024/03/05 10:01:55;;;;;;;4.22;2.28;;;;;;;12.36;54.45;101008.47;5092466;28;20646;-66
2024/03/05 10:04:26;;;;;;;6.72;2.85;;;;;;;12.31;54.43;100996.03;5090775;28;20035;-66
2024/03/05 10:06:52;;;;;;;;;;;;;;;12.42;54.25;101013.25;5117118;27;20024;-66
2024/03/05 10:09:18;;;;;;;8.43;2.20;;;;;;;12.41;54.01;101008.97;5089059;28;19915;-66
2024/03/05 10:11:45;;;;;;;2.28;1.80;;;;;;;12.42;54.84;101007.84;5093486;28;20035;-66
2024/03/05 10:14:11;;;;;;;2.92;1.88;;;;;;;12.33;53.24;101003.81;5087421;28;20032;-66
2024/03/05 10:16:37;;;;;;;2.95;1.95;;;;;;;12.09;53.94;101012.19;5088173;28;20039;-66
2024/03/05 10:19:15;;;;;;;3.33;1.92;;;;;;;12.09;54.44;101009.50;5090251;28;20019;-66
2024/03/05 10:21:42;;;;;;;4.32;2.03;;;;;;;12.16;53.76;101018.50;5089566;28;20111;-66
2024/03/05 10:24:09;;;;;;;3.63;2.08;;;;;;;12.03;53.93;101019.78;5090893;28;20044;-66
2024/03/05 10:26:36;;;;;;;5.28;2.17;;;;;;;12.06;54.79;101010.97;5090143;28;20046;-66
2024/03/05 10:29:09;;;;;;;4.55;2.28;;;;;;;11.89;54.33;101016.00;5089659;28;20027;-67
2024/03/05 10:31:40;;;;;;;5.15;2.03;;;;;;;12.20;54.30;101027.47;5087777;28;20028;-66
2024/03/05 10:34:06;;;;;;;2.70;1.83;;;;;;;12.01;54.27;101029.38;5083804;28;20116;-67
2024/03/05 10:36:38;;;;;;;5.60;1.80;;;;;;;11.86;52.65;101028.31;5087608;28;20023;-66
2024/03/05 10:39:05;;;;;;;;;;;;;;;11.92;52.94;101028.81;5088315;28;20030;-66
2024/03/05 10:41:30;;;;;;;4.05;1.90;;;;;;;12.21;53.36;101026.34;5086724;27;19966;-66
2024/03/05 10:44:00;;;;;;;3.50;2.10;;;;;;;12.19;52.06;101031.31;5091756;28;20696;-67
2024/03/05 10:46:28;;;;;;;4.95;2.17;;;;;;;12.09;52.54;101031.09;5096378;28;20035;-67
2024/03/05 10:48:54;;;;;;;5.20;2.53;;;;;;;12.12;52.86;101033.84;5090573;28;20020;-67
2024/03/05 10:51:21;;;;;;;9.68;2.53;;;;;;;11.92;53.58;101031.50;5090400;28;20122;-66
2024/03/05 10:53:48;;;;;;;4.22;2.00;;;;;;;11.70;53.92;101031.06;5072341;28;20028;-66
2024/03/05 10:56:14;;;;;;;3.83;1.90;;;;;;;11.88;52.89;101042.22;5084845;28;20033;-66
2024/03/05 11:01:18;;;;;;;4.93;2.03;;;;;;;11.74;53.14;101026.53;5094010;28;20028;-67
2024/03/05 11:03:46;;;;;;;3.70;2.40;;;;;;;11.44;52.93;101038.13;5089441;28;20040;-67
2024/03/05 11:06:14;;;;;;;6.78;1.77;;;;;;;11.40;53.34;101042.66;5090634;28;20036;-68
2024/03/05 11:08:41;;;;;;;3.83;1.98;;;;;;;11.39;53.60;101039.19;5087210;28;20056;-66
2024/03/05 11:11:14;;;;;;;4.65;2.10;;;;;;;11.31;53.06;101033.97;5099204;28;20077;-68
2024/03/05 11:13:41;;;;;;;5.47;2.17;;;;;;;11.42;53.44;101037.72;5088528;28;20028;-67
2024/03/05 11:16:08;;;;;;;2.88;1.67;;;;;;;11.57;53.14;101026.88;5090759;28;20026;-67
2024/03/05 11:18:34;;;;;;;2.47;1.95;;;;;;;11.35;53.33;101024.03;5085561;28;20028;-68
2024/03/05 11:21:13;;;;;;;4.38;2.25;;;;;;;11.27;53.86;101020.41;5091253;28;20028;-67
2024/03/05 11:23:53;;;;;;;3.45;1.80;;;;;;;10.94;53.92;101025.38;5106761;27;20028;-66
2024/03/05 11:26:22;;;;;;;3.67;1.70;;;;;;;11.26;53.91;101020.75;5075039;28;20095;-66
2024/03/05 11:28:48;;;;;;;2.35;1.58;;;;;;;11.43;53.66;101018.47;5086355;28;20060;-67
2024/03/05 11:31:17;;;;;;;4.38;2.25;;;;;;;11.71;52.47;101021.06;5089974;28;20029;-67
2024/03/05 11:33:44;;;;;;;3.05;1.75;;;;;;;11.78;51.45;101027.38;5074451;28;20012;-66
2024/03/05 11:36:30;;;;;;;6.70;1.83;;;;;;;11.52;52.59;101024.44;5092135;28;20032;-66